Terminal Aerodrome Forecast
Issued by NWS

Home | Current Version | Previous Version | Text Only | Print | Product List | Glossary On
Versions: 1 2 3 4 5 6 7 8 9 10 11 12 13 14 15 16 17 18 19 20 21 22 23 24 25 26 27 28 29 30 31 32 33
000
FTUS45 KBOU 051400 AAA
TAFAPA
TAF AMD
KAPA 051400Z 0514/0612 31006KT P6SM SCT100 SCT220
     FM051500 25009KT P6SM SCT110 SCT200
     FM051700 28015G25KT P6SM SCT100 SCT200
     FM052300 32015G25KT P6SM SCT090 SCT200
     FM060300 01014G22KT P6SM SCT080 BKN120
     FM060500 06012KT P6SM SCT070 BKN110=

USA.gov is the U.S. government's official web portal to all federal, state and local government web resources and services.